sensor_id;sensor_type;location;lat;lon;timestamp;pressure;altitude;pressure_sealevel;temperature
34125;BMP280;20110;53.120;5.786;2023-09-19T00:00:58;100443.28;;;20.94
34125;BMP280;20110;53.120;5.786;2023-09-19T00:03:24;100468.63;;;21.01
34125;BMP280;20110;53.120;5.786;2023-09-19T00:05:51;100437.34;;;20.96
34125;BMP280;20110;53.120;5.786;2023-09-19T00:08:18;100473.44;;;21.27
34125;BMP280;20110;53.120;5.786;2023-09-19T00:10:48;100461.00;;;21.22
34125;BMP280;20110;53.120;5.786;2023-09-19T00:13:14;100472.44;;;21.34
34125;BMP280;20110;53.120;5.786;2023-09-19T00:15:43;100473.63;;;21.31
34125;BMP280;20110;53.120;5.786;2023-09-19T00:18:14;100488.69;;;21.23
34125;BMP280;20110;53.120;5.786;2023-09-19T00:20:41;100471.31;;;21.01
34125;BMP280;20110;53.120;5.786;2023-09-19T00:23:08;100485.50;;;21.01
34125;BMP280;20110;53.120;5.786;2023-09-19T00:25:35;100482.88;;;20.89
34125;BMP280;20110;53.120;5.786;2023-09-19T00:28:02;100439.81;;;20.55
34125;BMP280;20110;53.120;5.786;2023-09-19T00:30:28;100485.59;;;20.78
34125;BMP280;20110;53.120;5.786;2023-09-19T00:32:53;100483.44;;;20.63
34125;BMP280;20110;53.120;5.786;2023-09-19T00:35:23;100481.59;;;20.42
34125;BMP280;20110;53.120;5.786;2023-09-19T00:37:50;100482.06;;;20.38
34125;BMP280;20110;53.120;5.786;2023-09-19T00:40:16;100481.47;;;20.40
34125;BMP280;20110;53.120;5.786;2023-09-19T00:42:44;100494.38;;;20.41
34125;BMP280;20110;53.120;5.786;2023-09-19T00:45:12;100489.31;;;20.36
34125;BMP280;20110;53.120;5.786;2023-09-19T00:47:50;100500.59;;;20.32
34125;BMP280;20110;53.120;5.786;2023-09-19T00:50:20;100506.69;;;20.21
34125;BMP280;20110;53.120;5.786;2023-09-19T00:52:50;100505.16;;;20.18
34125;BMP280;20110;53.120;5.786;2023-09-19T00:55:18;100495.94;;;20.09
34125;BMP280;20110;53.120;5.786;2023-09-19T00:57:46;100514.78;;;20.21
34125;BMP280;20110;53.120;5.786;2023-09-19T01:00:13;100507.28;;;20.20
34125;BMP280;20110;53.120;5.786;2023-09-19T01:02:46;100492.28;;;20.05
34125;BMP280;20110;53.120;5.786;2023-09-19T01:05:13;100500.59;;;20.21
34125;BMP280;20110;53.120;5.786;2023-09-19T01:07:39;100460.75;;;19.96
34125;BMP280;20110;53.120;5.786;2023-09-19T01:10:13;100491.69;;;20.18
34125;BMP280;20110;53.120;5.786;2023-09-19T01:13:16;100513.97;;;20.30
34125;BMP280;20110;53.120;5.786;2023-09-19T01:16:26;100506.94;;;20.25
34125;BMP280;20110;53.120;5.786;2023-09-19T01:22:42;100508.56;;;20.54
34125;BMP280;20110;53.120;5.786;2023-09-19T01:28:23;100525.25;;;20.87
34125;BMP280;20110;53.120;5.786;2023-09-19T01:30:57;100527.81;;;20.85
34125;BMP280;20110;53.120;5.786;2023-09-19T01:33:25;100514.03;;;20.67
34125;BMP280;20110;53.120;5.786;2023-09-19T01:36:01;100506.53;;;20.54
34125;BMP280;20110;53.120;5.786;2023-09-19T01:38:27;100524.31;;;20.71
34125;BMP280;20110;53.120;5.786;2023-09-19T01:41:11;100529.84;;;20.73
34125;BMP280;20110;53.120;5.786;2023-09-19T01:43:42;100548.75;;;20.73
34125;BMP280;20110;53.120;5.786;2023-09-19T01:46:37;100527.53;;;20.67
34125;BMP280;20110;53.120;5.786;2023-09-19T01:49:18;100515.31;;;20.66
34125;BMP280;20110;53.120;5.786;2023-09-19T01:52:20;100528.44;;;20.72
34125;BMP280;20110;53.120;5.786;2023-09-19T01:54:51;100530.78;;;20.77
34125;BMP280;20110;53.120;5.786;2023-09-19T01:57:41;100503.63;;;20.50
34125;BMP280;20110;53.120;5.786;2023-09-19T02:00:11;100520.59;;;20.76
34125;BMP280;20110;53.120;5.786;2023-09-19T02:02:42;100504.06;;;20.58
34125;BMP280;20110;53.120;5.786;2023-09-19T02:05:10;100488.50;;;20.45
34125;BMP280;20110;53.120;5.786;2023-09-19T02:07:38;100524.25;;;20.69
34125;BMP280;20110;53.120;5.786;2023-09-19T02:10:06;100536.91;;;20.66
34125;BMP280;20110;53.120;5.786;2023-09-19T02:12:33;100514.41;;;20.50
34125;BMP280;20110;53.120;5.786;2023-09-19T02:15:01;100513.81;;;20.51
34125;BMP280;20110;53.120;5.786;2023-09-19T02:17:27;100519.06;;;20.73
34125;BMP280;20110;53.120;5.786;2023-09-19T02:19:55;100536.13;;;20.89
34125;BMP280;20110;53.120;5.786;2023-09-19T02:22:22;100526.84;;;20.92
34125;BMP280;20110;53.120;5.786;2023-09-19T02:24:48;100514.91;;;20.95
34125;BMP280;20110;53.120;5.786;2023-09-19T02:27:14;100503.41;;;20.83
34125;BMP280;20110;53.120;5.786;2023-09-19T02:29:42;100530.22;;;20.67
34125;BMP280;20110;53.120;5.786;2023-09-19T02:32:09;100512.41;;;20.39
34125;BMP280;20110;53.120;5.786;2023-09-19T02:34:36;100526.72;;;20.30
34125;BMP280;20110;53.120;5.786;2023-09-19T02:37:08;100539.50;;;20.18
34125;BMP280;20110;53.120;5.786;2023-09-19T02:39:38;100529.78;;;20.13
34125;BMP280;20110;53.120;5.786;2023-09-19T02:42:04;100542.91;;;20.18
34125;BMP280;20110;53.120;5.786;2023-09-19T02:44:30;100552.06;;;20.25
34125;BMP280;20110;53.120;5.786;2023-09-19T02:46:57;100558.41;;;20.41
34125;BMP280;20110;53.120;5.786;2023-09-19T02:49:25;100539.28;;;20.48
34125;BMP280;20110;53.120;5.786;2023-09-19T02:51:51;100555.53;;;20.74
34125;BMP280;20110;53.120;5.786;2023-09-19T02:54:17;100544.97;;;20.78
34125;BMP280;20110;53.120;5.786;2023-09-19T02:56:43;100487.72;;;20.31
34125;BMP280;20110;53.120;5.786;2023-09-19T02:59:09;100530.34;;;20.69
34125;BMP280;20110;53.120;5.786;2023-09-19T03:01:36;100494.94;;;20.40
34125;BMP280;20110;53.120;5.786;2023-09-19T03:04:04;100499.19;;;20.43
34125;BMP280;20110;53.120;5.786;2023-09-19T03:06:31;100484.88;;;20.29
34125;BMP280;20110;53.120;5.786;2023-09-19T03:08:58;100542.91;;;20.53
34125;BMP280;20110;53.120;5.786;2023-09-19T03:11:26;100544.34;;;20.42
34125;BMP280;20110;53.120;5.786;2023-09-19T03:13:55;100554.28;;;20.40
34125;BMP280;20110;53.120;5.786;2023-09-19T03:16:21;100517.94;;;20.06
34125;BMP280;20110;53.120;5.786;2023-09-19T03:18:51;100550.56;;;20.22
34125;BMP280;20110;53.120;5.786;2023-09-19T03:21:17;100567.75;;;20.28
34125;BMP280;20110;53.120;5.786;2023-09-19T03:23:44;100564.47;;;20.30
34125;BMP280;20110;53.120;5.786;2023-09-19T03:26:14;100547.59;;;20.29
34125;BMP280;20110;53.120;5.786;2023-09-19T03:28:42;100516.66;;;20.19
34125;BMP280;20110;53.120;5.786;2023-09-19T03:31:09;100535.66;;;20.44
34125;BMP280;20110;53.120;5.786;2023-09-19T03:33:37;100547.34;;;20.60
34125;BMP280;20110;53.120;5.786;2023-09-19T03:36:04;100523.88;;;20.51
34125;BMP280;20110;53.120;5.786;2023-09-19T03:38:32;100543.31;;;20.84
34125;BMP280;20110;53.120;5.786;2023-09-19T03:40:58;100562.75;;;21.06
34125;BMP280;20110;53.120;5.786;2023-09-19T03:43:24;100560.94;;;21.11
34125;BMP280;20110;53.120;5.786;2023-09-19T03:45:50;100573.16;;;21.12
34125;BMP280;20110;53.120;5.786;2023-09-19T03:48:16;100573.06;;;21.10
34125;BMP280;20110;53.120;5.786;2023-09-19T03:50:43;100556.03;;;21.07
34125;BMP280;20110;53.120;5.786;2023-09-19T03:53:12;100569.53;;;21.07
34125;BMP280;20110;53.120;5.786;2023-09-19T03:55:39;100569.91;;;21.02
34125;BMP280;20110;53.120;5.786;2023-09-19T03:58:05;100563.59;;;20.97
34125;BMP280;20110;53.120;5.786;2023-09-19T04:00:31;100561.69;;;21.00
34125;BMP280;20110;53.120;5.786;2023-09-19T04:02:57;100555.16;;;20.91
34125;BMP280;20110;53.120;5.786;2023-09-19T04:05:24;100554.41;;;21.02
34125;BMP280;20110;53.120;5.786;2023-09-19T04:07:50;100556.66;;;20.94
34125;BMP280;20110;53.120;5.786;2023-09-19T04:10:16;100578.22;;;21.17
34125;BMP280;20110;53.120;5.786;2023-09-19T04:12:54;100558.75;;;21.07
34125;BMP280;20110;53.120;5.786;2023-09-19T04:15:20;100548.56;;;21.06
34125;BMP280;20110;53.120;5.786;2023-09-19T04:17:50;100568.78;;;21.18
34125;BMP280;20110;53.120;5.786;2023-09-19T04:20:18;100571.50;;;21.18
34125;BMP280;20110;53.120;5.786;2023-09-19T04:22:51;100548.19;;;21.00
34125;BMP280;20110;53.120;5.786;2023-09-19T04:25:17;100547.41;;;21.22
34125;BMP280;20110;53.120;5.786;2023-09-19T04:27:44;100567.88;;;21.14
34125;BMP280;20110;53.120;5.786;2023-09-19T04:30:10;100566.25;;;21.09
34125;BMP280;20110;53.120;5.786;2023-09-19T04:32:41;100548.88;;;21.00
34125;BMP280;20110;53.120;5.786;2023-09-19T04:35:09;100572.41;;;21.23
34125;BMP280;20110;53.120;5.786;2023-09-19T04:37:40;100583.34;;;21.25
34125;BMP280;20110;53.120;5.786;2023-09-19T04:40:09;100578.50;;;21.23
34125;BMP280;20110;53.120;5.786;2023-09-19T04:42:39;100512.13;;;20.70
34125;BMP280;20110;53.120;5.786;2023-09-19T04:45:06;100571.34;;;21.28
34125;BMP280;20110;53.120;5.786;2023-09-19T04:47:32;100537.75;;;21.06
34125;BMP280;20110;53.120;5.786;2023-09-19T04:49:58;100588.81;;;21.27
34125;BMP280;20110;53.120;5.786;2023-09-19T04:52:24;100587.09;;;21.20
34125;BMP280;20110;53.120;5.786;2023-09-19T04:54:50;100599.28;;;21.32
34125;BMP280;20110;53.120;5.786;2023-09-19T04:57:16;100603.16;;;21.29
34125;BMP280;20110;53.120;5.786;2023-09-19T04:59:42;100594.47;;;21.31
34125;BMP280;20110;53.120;5.786;2023-09-19T05:02:07;100545.97;;;20.96
34125;BMP280;20110;53.120;5.786;2023-09-19T05:04:34;100575.22;;;21.25
34125;BMP280;20110;53.120;5.786;2023-09-19T05:07:00;100584.38;;;21.31
34125;BMP280;20110;53.120;5.786;2023-09-19T05:09:29;100592.47;;;21.31
34125;BMP280;20110;53.120;5.786;2023-09-19T05:11:55;100592.69;;;21.35
34125;BMP280;20110;53.120;5.786;2023-09-19T05:14:22;100601.72;;;21.40
34125;BMP280;20110;53.120;5.786;2023-09-19T05:16:49;100594.31;;;21.41
34125;BMP280;20110;53.120;5.786;2023-09-19T05:19:14;100598.53;;;21.44
34125;BMP280;20110;53.120;5.786;2023-09-19T05:21:40;100604.13;;;21.48
34125;BMP280;20110;53.120;5.786;2023-09-19T05:24:06;100590.31;;;21.42
34125;BMP280;20110;53.120;5.786;2023-09-19T05:26:33;100572.38;;;21.34
34125;BMP280;20110;53.120;5.786;2023-09-19T05:28:59;100566.31;;;21.22
34125;BMP280;20110;53.120;5.786;2023-09-19T05:31:27;100602.13;;;21.48
34125;BMP280;20110;53.120;5.786;2023-09-19T05:33:53;100608.91;;;21.61
34125;BMP280;20110;53.120;5.786;2023-09-19T05:36:20;100570.91;;;21.45
34125;BMP280;20110;53.120;5.786;2023-09-19T05:38:46;100593.69;;;21.67
34125;BMP280;20110;53.120;5.786;2023-09-19T05:41:15;100567.91;;;21.39
34125;BMP280;20110;53.120;5.786;2023-09-19T05:43:43;100562.00;;;21.43
34125;BMP280;20110;53.120;5.786;2023-09-19T05:46:15;100594.03;;;21.73
34125;BMP280;20110;53.120;5.786;2023-09-19T05:48:42;100581.06;;;21.58
34125;BMP280;20110;53.120;5.786;2023-09-19T05:51:09;100596.13;;;21.75
34125;BMP280;20110;53.120;5.786;2023-09-19T05:53:35;100634.56;;;21.73
34125;BMP280;20110;53.120;5.786;2023-09-19T05:56:01;100613.91;;;21.66
34125;BMP280;20110;53.120;5.786;2023-09-19T05:58:27;100634.88;;;21.80
34125;BMP280;20110;53.120;5.786;2023-09-19T06:00:53;100618.25;;;21.71
34125;BMP280;20110;53.120;5.786;2023-09-19T06:03:18;100629.00;;;21.83
34125;BMP280;20110;53.120;5.786;2023-09-19T06:05:46;100621.38;;;21.80
34125;BMP280;20110;53.120;5.786;2023-09-19T06:08:14;100601.75;;;21.54
34125;BMP280;20110;53.120;5.786;2023-09-19T06:10:40;100639.59;;;21.79
34125;BMP280;20110;53.120;5.786;2023-09-19T06:13:06;100642.38;;;21.81
34125;BMP280;20110;53.120;5.786;2023-09-19T06:15:36;100632.06;;;21.77
34125;BMP280;20110;53.120;5.786;2023-09-19T06:18:02;100640.28;;;21.80
34125;BMP280;20110;53.120;5.786;2023-09-19T06:20:30;100621.75;;;21.74
34125;BMP280;20110;53.120;5.786;2023-09-19T06:22:58;100610.22;;;21.73
34125;BMP280;20110;53.120;5.786;2023-09-19T06:25:24;100618.91;;;21.84
34125;BMP280;20110;53.120;5.786;2023-09-19T06:27:58;100623.53;;;21.95
34125;BMP280;20110;53.120;5.786;2023-09-19T06:30:24;100630.53;;;22.00
34125;BMP280;20110;53.120;5.786;2023-09-19T06:32:57;100635.84;;;22.11
34125;BMP280;20110;53.120;5.786;2023-09-19T06:35:24;100613.75;;;22.15
34125;BMP280;20110;53.120;5.786;2023-09-19T06:37:52;100615.16;;;22.16
34125;BMP280;20110;53.120;5.786;2023-09-19T06:40:18;100630.38;;;22.23
34125;BMP280;20110;53.120;5.786;2023-09-19T06:42:50;100601.09;;;22.06
34125;BMP280;20110;53.120;5.786;2023-09-19T06:45:18;100630.19;;;22.33
34125;BMP280;20110;53.120;5.786;2023-09-19T06:47:50;100619.84;;;22.43
34125;BMP280;20110;53.120;5.786;2023-09-19T06:50:21;100609.34;;;22.35
34125;BMP280;20110;53.120;5.786;2023-09-19T06:52:51;100636.00;;;22.68
34125;BMP280;20110;53.120;5.786;2023-09-19T06:55:20;100620.75;;;22.75
34125;BMP280;20110;53.120;5.786;2023-09-19T06:57:47;100591.28;;;22.67
34125;BMP280;20110;53.120;5.786;2023-09-19T07:00:14;100589.19;;;22.52
34125;BMP280;20110;53.120;5.786;2023-09-19T07:03:08;100643.91;;;22.91
34125;BMP280;20110;53.120;5.786;2023-09-19T07:05:38;100632.47;;;22.93
34125;BMP280;20110;53.120;5.786;2023-09-19T07:08:09;100639.44;;;23.12
34125;BMP280;20110;53.120;5.786;2023-09-19T07:10:38;100630.59;;;23.11
34125;BMP280;20110;53.120;5.786;2023-09-19T07:13:10;100642.94;;;23.14
34125;BMP280;20110;53.120;5.786;2023-09-19T07:15:38;100628.31;;;23.05
34125;BMP280;20110;53.120;5.786;2023-09-19T07:18:07;100636.88;;;23.00
34125;BMP280;20110;53.120;5.786;2023-09-19T07:20:36;100638.66;;;22.95
34125;BMP280;20110;53.120;5.786;2023-09-19T07:23:04;100656.22;;;22.94
34125;BMP280;20110;53.120;5.786;2023-09-19T07:25:30;100654.22;;;22.95
34125;BMP280;20110;53.120;5.786;2023-09-19T07:27:57;100659.25;;;23.00
34125;BMP280;20110;53.120;5.786;2023-09-19T07:30:27;100670.34;;;23.07
34125;BMP280;20110;53.120;5.786;2023-09-19T07:32:54;100667.00;;;23.08
34125;BMP280;20110;53.120;5.786;2023-09-19T07:35:21;100643.81;;;22.89
34125;BMP280;20110;53.120;5.786;2023-09-19T07:37:48;100639.06;;;23.03
34125;BMP280;20110;53.120;5.786;2023-09-19T07:40:15;100629.09;;;23.08
34125;BMP280;20110;53.120;5.786;2023-09-19T07:42:41;100648.16;;;23.24
34125;BMP280;20110;53.120;5.786;2023-09-19T07:45:09;100679.59;;;23.44
34125;BMP280;20110;53.120;5.786;2023-09-19T07:47:36;100679.34;;;23.54
34125;BMP280;20110;53.120;5.786;2023-09-19T07:50:03;100650.78;;;23.67
34125;BMP280;20110;53.120;5.786;2023-09-19T07:52:31;100654.97;;;23.70
34125;BMP280;20110;53.120;5.786;2023-09-19T07:54:59;100647.00;;;23.74
34125;BMP280;20110;53.120;5.786;2023-09-19T07:57:27;100621.31;;;23.75
34125;BMP280;20110;53.120;5.786;2023-09-19T07:59:54;100617.44;;;23.96
34125;BMP280;20110;53.120;5.786;2023-09-19T08:02:20;100642.84;;;23.86
34125;BMP280;20110;53.120;5.786;2023-09-19T08:04:46;100623.41;;;23.92
34125;BMP280;20110;53.120;5.786;2023-09-19T08:07:13;100652.53;;;24.23
34125;BMP280;20110;53.120;5.786;2023-09-19T08:09:39;100628.75;;;24.21
34125;BMP280;20110;53.120;5.786;2023-09-19T08:12:07;100651.59;;;24.50
34125;BMP280;20110;53.120;5.786;2023-09-19T08:14:36;100649.03;;;24.69
34125;BMP280;20110;53.120;5.786;2023-09-19T08:17:03;100586.09;;;24.57
34125;BMP280;20110;53.120;5.786;2023-09-19T08:19:34;100647.25;;;24.76
34125;BMP280;20110;53.120;5.786;2023-09-19T08:21:59;100625.94;;;24.70
34125;BMP280;20110;53.120;5.786;2023-09-19T08:24:28;100603.06;;;24.58
34125;BMP280;20110;53.120;5.786;2023-09-19T08:26:57;100656.72;;;24.42
34125;BMP280;20110;53.120;5.786;2023-09-19T08:29:25;100567.94;;;23.79
34125;BMP280;20110;53.120;5.786;2023-09-19T08:31:54;100622.56;;;24.36
34125;BMP280;20110;53.120;5.786;2023-09-19T08:34:25;100640.63;;;24.30
34125;BMP280;20110;53.120;5.786;2023-09-19T08:36:55;100626.63;;;24.20
34125;BMP280;20110;53.120;5.786;2023-09-19T08:39:25;100645.59;;;24.35
34125;BMP280;20110;53.120;5.786;2023-09-19T08:42:01;100623.38;;;24.23
34125;BMP280;20110;53.120;5.786;2023-09-19T08:44:28;100614.81;;;24.62
34125;BMP280;20110;53.120;5.786;2023-09-19T08:47:15;100633.44;;;24.70
34125;BMP280;20110;53.120;5.786;2023-09-19T08:50:11;100651.75;;;24.87
34125;BMP280;20110;53.120;5.786;2023-09-19T08:52:43;100606.13;;;24.84
34125;BMP280;20110;53.120;5.786;2023-09-19T08:55:14;100663.25;;;24.86
34125;BMP280;20110;53.120;5.786;2023-09-19T08:57:49;100647.88;;;24.92
34125;BMP280;20110;53.120;5.786;2023-09-19T09:00:19;100615.69;;;25.02
34125;BMP280;20110;53.120;5.786;2023-09-19T09:02:47;100649.13;;;24.89
34125;BMP280;20110;53.120;5.786;2023-09-19T09:05:15;100654.47;;;25.05
34125;BMP280;20110;53.120;5.786;2023-09-19T09:07:49;100651.25;;;25.08
34125;BMP280;20110;53.120;5.786;2023-09-19T09:10:19;100626.53;;;25.02
34125;BMP280;20110;53.120;5.786;2023-09-19T09:12:53;100661.31;;;25.06
34125;BMP280;20110;53.120;5.786;2023-09-19T09:15:23;100655.34;;;25.27
34125;BMP280;20110;53.120;5.786;2023-09-19T09:17:51;100647.69;;;25.41
34125;BMP280;20110;53.120;5.786;2023-09-19T09:20:20;100592.66;;;25.23
34125;BMP280;20110;53.120;5.786;2023-09-19T09:22:54;100619.69;;;25.56
34125;BMP280;20110;53.120;5.786;2023-09-19T09:25:22;100635.13;;;25.69
34125;BMP280;20110;53.120;5.786;2023-09-19T09:28:24;100617.16;;;25.60
34125;BMP280;20110;53.120;5.786;2023-09-19T09:30:50;100630.56;;;25.74
34125;BMP280;20110;53.120;5.786;2023-09-19T09:33:17;100599.66;;;25.85
34125;BMP280;20110;53.120;5.786;2023-09-19T09:35:54;100638.97;;;26.02
34125;BMP280;20110;53.120;5.786;2023-09-19T09:38:25;100629.56;;;26.05
34125;BMP280;20110;53.120;5.786;2023-09-19T09:40:56;100619.59;;;25.92
34125;BMP280;20110;53.120;5.786;2023-09-19T09:43:37;100636.47;;;26.08
34125;BMP280;20110;53.120;5.786;2023-09-19T09:46:13;100615.22;;;26.24
34125;BMP280;20110;53.120;5.786;2023-09-19T09:49:03;100608.28;;;26.62
34125;BMP280;20110;53.120;5.786;2023-09-19T09:52:05;100616.44;;;26.84
34125;BMP280;20110;53.120;5.786;2023-09-19T09:54:31;100615.19;;;26.66
34125;BMP280;20110;53.120;5.786;2023-09-19T09:57:09;100622.66;;;26.43
34125;BMP280;20110;53.120;5.786;2023-09-19T09:59:48;100572.69;;;26.13
34125;BMP280;20110;53.120;5.786;2023-09-19T10:02:35;100600.75;;;25.98
34125;BMP280;20110;53.120;5.786;2023-09-19T10:05:17;100580.13;;;25.71
34125;BMP280;20110;53.120;5.786;2023-09-19T10:07:53;100613.72;;;25.99
34125;BMP280;20110;53.120;5.786;2023-09-19T10:10:36;100593.22;;;25.77
34125;BMP280;20110;53.120;5.786;2023-09-19T10:13:10;100578.97;;;25.78
34125;BMP280;20110;53.120;5.786;2023-09-19T10:15:48;100535.53;;;25.80
34125;BMP280;20110;53.120;5.786;2023-09-19T10:18:24;100608.56;;;26.07
34125;BMP280;20110;53.120;5.786;2023-09-19T10:20:51;100548.25;;;26.15
34125;BMP280;20110;53.120;5.786;2023-09-19T10:23:21;100582.31;;;26.16
34125;BMP280;20110;53.120;5.786;2023-09-19T10:25:52;100586.47;;;26.19
34125;BMP280;20110;53.120;5.786;2023-09-19T10:28:20;100591.00;;;26.32
34125;BMP280;20110;53.120;5.786;2023-09-19T10:30:53;100595.91;;;26.36
34125;BMP280;20110;53.120;5.786;2023-09-19T10:33:25;100531.59;;;25.63
34125;BMP280;20110;53.120;5.786;2023-09-19T10:35:52;100537.28;;;25.71
34125;BMP280;20110;53.120;5.786;2023-09-19T10:38:25;100597.97;;;25.19
34125;BMP280;20110;53.120;5.786;2023-09-19T10:40:54;100560.88;;;24.90
34125;BMP280;20110;53.120;5.786;2023-09-19T10:43:25;100486.38;;;24.95
34125;BMP280;20110;53.120;5.786;2023-09-19T10:45:53;100475.75;;;24.13
34125;BMP280;20110;53.120;5.786;2023-09-19T10:48:20;100559.00;;;24.59
34125;BMP280;20110;53.120;5.786;2023-09-19T10:51:07;100565.63;;;24.38
34125;BMP280;20110;53.120;5.786;2023-09-19T10:54:02;100563.53;;;24.53
34125;BMP280;20110;53.120;5.786;2023-09-19T10:56:42;100516.66;;;24.70
34125;BMP280;20110;53.120;5.786;2023-09-19T10:59:15;100547.59;;;25.75
34125;BMP280;20110;53.120;5.786;2023-09-19T11:01:56;100541.38;;;25.70
34125;BMP280;20110;53.120;5.786;2023-09-19T11:04:38;100512.81;;;25.71
34125;BMP280;20110;53.120;5.786;2023-09-19T11:07:06;100547.69;;;25.57
34125;BMP280;20110;53.120;5.786;2023-09-19T11:09:46;100527.06;;;25.13
34125;BMP280;20110;53.120;5.786;2023-09-19T11:14:57;100534.09;;;25.18
34125;BMP280;20110;53.120;5.786;2023-09-19T11:17:33;100441.84;;;24.29
34125;BMP280;20110;53.120;5.786;2023-09-19T11:30:34;100535.72;;;25.07
34125;BMP280;20110;53.120;5.786;2023-09-19T11:33:21;100517.19;;;25.02
34125;BMP280;20110;53.120;5.786;2023-09-19T11:36:16;100514.94;;;24.61
34125;BMP280;20110;53.120;5.786;2023-09-19T11:49:28;100506.69;;;22.53
34125;BMP280;20110;53.120;5.786;2023-09-19T11:51:59;100494.44;;;22.36
34125;BMP280;20110;53.120;5.786;2023-09-19T11:54:32;100545.31;;;22.40
34125;BMP280;20110;53.120;5.786;2023-09-19T11:57:00;100554.81;;;22.54
34125;BMP280;20110;53.120;5.786;2023-09-19T11:59:30;100524.28;;;22.38
34125;BMP280;20110;53.120;5.786;2023-09-19T12:02:07;100517.59;;;22.26
34125;BMP280;20110;53.120;5.786;2023-09-19T12:04:40;100544.34;;;23.05
34125;BMP280;20110;53.120;5.786;2023-09-19T12:07:13;100538.09;;;23.95
34125;BMP280;20110;53.120;5.786;2023-09-19T12:10:04;100525.69;;;24.23
34125;BMP280;20110;53.120;5.786;2023-09-19T12:12:36;100509.84;;;24.33
34125;BMP280;20110;53.120;5.786;2023-09-19T12:15:03;100497.72;;;24.36
34125;BMP280;20110;53.120;5.786;2023-09-19T12:17:40;100497.88;;;24.23
34125;BMP280;20110;53.120;5.786;2023-09-19T12:20:09;100495.56;;;24.33
34125;BMP280;20110;53.120;5.786;2023-09-19T12:22:44;100421.44;;;24.46
34125;BMP280;20110;53.120;5.786;2023-09-19T12:25:10;100465.56;;;24.47
34125;BMP280;20110;53.120;5.786;2023-09-19T12:27:48;100500.38;;;24.70
34125;BMP280;20110;53.120;5.786;2023-09-19T12:30:28;100494.56;;;24.60
34125;BMP280;20110;53.120;5.786;2023-09-19T12:32:58;100460.69;;;24.43
34125;BMP280;20110;53.120;5.786;2023-09-19T12:35:32;100477.22;;;23.98
34125;BMP280;20110;53.120;5.786;2023-09-19T12:38:02;100508.09;;;23.75
34125;BMP280;20110;53.120;5.786;2023-09-19T12:40:30;100477.34;;;23.53
34125;BMP280;20110;53.120;5.786;2023-09-19T12:42:59;100422.06;;;23.27
34125;BMP280;20110;53.120;5.786;2023-09-19T12:45:29;100452.78;;;23.18
34125;BMP280;20110;53.120;5.786;2023-09-19T12:48:24;100472.38;;;23.00
34125;BMP280;20110;53.120;5.786;2023-09-19T12:51:03;100502.81;;;22.42
34125;BMP280;20110;53.120;5.786;2023-09-19T12:53:40;100475.84;;;22.58
34125;BMP280;20110;53.120;5.786;2023-09-19T12:56:09;100503.88;;;22.94
34125;BMP280;20110;53.120;5.786;2023-09-19T12:58:51;100464.53;;;23.22
34125;BMP280;20110;53.120;5.786;2023-09-19T13:01:20;100437.78;;;23.46
34125;BMP280;20110;53.120;5.786;2023-09-19T13:04:16;100450.78;;;23.65
34125;BMP280;20110;53.120;5.786;2023-09-19T13:06:52;100504.38;;;23.67
34125;BMP280;20110;53.120;5.786;2023-09-19T13:09:20;100500.41;;;23.85
34125;BMP280;20110;53.120;5.786;2023-09-19T13:11:47;100440.25;;;24.07
34125;BMP280;20110;53.120;5.786;2023-09-19T13:14:28;100481.28;;;24.15
34125;BMP280;20110;53.120;5.786;2023-09-19T13:17:07;100442.75;;;24.36
34125;BMP280;20110;53.120;5.786;2023-09-19T13:19:47;100482.13;;;23.86
34125;BMP280;20110;53.120;5.786;2023-09-19T13:22:43;100511.38;;;23.56
34125;BMP280;20110;53.120;5.786;2023-09-19T13:25:21;100490.97;;;23.86
34125;BMP280;20110;53.120;5.786;2023-09-19T13:27:53;100481.72;;;24.09
34125;BMP280;20110;53.120;5.786;2023-09-19T13:30:24;100460.03;;;24.27
34125;BMP280;20110;53.120;5.786;2023-09-19T13:32:52;100456.88;;;24.50
34125;BMP280;20110;53.120;5.786;2023-09-19T13:35:19;100432.22;;;24.81
34125;BMP280;20110;53.120;5.786;2023-09-19T13:37:47;100430.25;;;24.64
34125;BMP280;20110;53.120;5.786;2023-09-19T13:40:15;100463.19;;;24.92
34125;BMP280;20110;53.120;5.786;2023-09-19T13:42:42;100436.53;;;24.69
34125;BMP280;20110;53.120;5.786;2023-09-19T13:45:09;100465.84;;;24.72
34125;BMP280;20110;53.120;5.786;2023-09-19T13:47:38;100445.38;;;24.69
34125;BMP280;20110;53.120;5.786;2023-09-19T13:50:05;100437.31;;;24.91
34125;BMP280;20110;53.120;5.786;2023-09-19T13:52:32;100400.78;;;24.57
34125;BMP280;20110;53.120;5.786;2023-09-19T13:54:58;100410.53;;;24.64
34125;BMP280;20110;53.120;5.786;2023-09-19T13:57:26;100442.06;;;24.35
34125;BMP280;20110;53.120;5.786;2023-09-19T13:59:54;100449.66;;;24.21
34125;BMP280;20110;53.120;5.786;2023-09-19T14:02:22;100417.38;;;23.61
34125;BMP280;20110;53.120;5.786;2023-09-19T14:04:54;100448.22;;;23.69
34125;BMP280;20110;53.120;5.786;2023-09-19T14:07:20;100437.44;;;23.38
34125;BMP280;20110;53.120;5.786;2023-09-19T14:09:47;100417.16;;;23.08
34125;BMP280;20110;53.120;5.786;2023-09-19T14:12:14;100416.25;;;22.87
34125;BMP280;20110;53.120;5.786;2023-09-19T14:14:41;100427.38;;;23.09
34125;BMP280;20110;53.120;5.786;2023-09-19T14:17:08;100425.97;;;23.08
34125;BMP280;20110;53.120;5.786;2023-09-19T14:19:36;100445.13;;;23.28
34125;BMP280;20110;53.120;5.786;2023-09-19T14:22:03;100473.31;;;23.70
34125;BMP280;20110;53.120;5.786;2023-09-19T14:24:33;100434.91;;;23.91
34125;BMP280;20110;53.120;5.786;2023-09-19T14:26:59;100451.88;;;23.91
34125;BMP280;20110;53.120;5.786;2023-09-19T14:29:25;100433.66;;;24.12
34125;BMP280;20110;53.120;5.786;2023-09-19T14:31:51;100458.13;;;24.29
34125;BMP280;20110;53.120;5.786;2023-09-19T14:34:18;100425.19;;;23.86
34125;BMP280;20110;53.120;5.786;2023-09-19T14:36:46;100466.16;;;24.10
34125;BMP280;20110;53.120;5.786;2023-09-19T14:39:12;100452.63;;;23.61
34125;BMP280;20110;53.120;5.786;2023-09-19T14:41:38;100450.63;;;23.45
34125;BMP280;20110;53.120;5.786;2023-09-19T14:44:04;100404.41;;;23.26
34125;BMP280;20110;53.120;5.786;2023-09-19T14:46:30;100459.47;;;23.30